Thunder radar more information blitzortung!


Radar de pluja more information rain snow radar


Visita la nostra xarxa de llocs de meteo:

Template documentation
and downloads

And another site



No particular awareness of the weather is required.    There are no Weather-warnings

Pagina Historial Weather Underground text

Diari Resum January 25, 2018 Unitats:  Tant    Imperial   Mètric
« Previous Dia
SegĂźent Dia »
Diari Setmana Mensual Anual Personalitzada
  Maxima: Minima: Media:
Temperatura: TemperatureC °F /  -17.8 °C 6.6 °F /  -14.1 °C 9.4 °F /  -12.6 °C
Punt de rosada: DewpointC °F /  -17.8 °C 3.8 °F /  -15.7 °C 6.5 °F /  -14.2 °C
Humitat: Humidity % 76 % 82 %
Wind Speed: WindSpeedKMH mph /  0 km/h - 2.2 mph /  3.5 km/h
RĂ fegues de vent: WindSpeedGustKMH mph /  0 km/h - -
Vent:- - SSE
Pression baro: PressurehPa in /  0 hPa 1012.8 in /  34293.4 hPa -
Precipitacions: 0.0 in /  0 mm    
Historical Graphs
 
 
Dades de taula per January 25, 2018
Temps Temperatura Punt de rosada Pression baro Vent Wind Speed RĂ fegues de vent Humitat Rainfall Rate (Hourly)
TemperatureC °F /  -17.8 °C DewpointC °F /  -17.8 °C PressurehPa in /  0 hPa Calm     Humidity % HourlyPrecipMM in /  0 mm
00:02 7.2 °F /  -13.8 °C 4.0 °F /  -15.6 °C 1027.0 in /  34774.2 hPa ENE 3.7 mph /  6 km/h 3.7 mph /  6 km/h 80 % 0.0 in /  0 mm
00:07 7.1 °F /  -13.8 °C 4.1 °F /  -15.5 °C 1027.0 in /  34774.2 hPa ENE 3.7 mph /  6 km/h 3.7 mph /  6 km/h 81 % 0.0 in /  0 mm
00:12 7.0 °F /  -13.9 °C 3.9 °F /  -15.6 °C 1027.0 in /  34774.2 hPa ENE 3.7 mph /  6 km/h 3.7 mph /  6 km/h 81 % 0.0 in /  0 mm
00:17 6.9 °F /  -13.9 °C 3.9 °F /  -15.6 °C 1027.0 in /  34774.2 hPa East 3.7 mph /  6 km/h 3.7 mph /  6 km/h 81 % 0.0 in /  0 mm
00:22 6.8 °F /  -14 °C 3.9 °F /  -15.6 °C 1027.0 in /  34774.2 hPa East 1.9 mph /  3.1 km/h 1.9 mph /  3.1 km/h 82 % 0.0 in /  0 mm
00:27 6.8 °F /  -14 °C 3.9 °F /  -15.6 °C 1027.0 in /  34774.2 hPa East 1.9 mph /  3.1 km/h 1.9 mph /  3.1 km/h 82 % 0.0 in /  0 mm
00:32 6.8 °F /  -14 °C 3.9 °F /  -15.6 °C 1027.0 in /  34774.2 hPa Calm     82 % 0.0 in /  0 mm
00:37 6.8 °F /  -14 °C 3.9 °F /  -15.6 °C 1027.0 in /  34774.2 hPa East 1.9 mph /  3.1 km/h 2.3 mph /  3.7 km/h 82 % 0.0 in /  0 mm
00:42 6.7 °F /  -14.1 °C 3.8 °F /  -15.7 °C 1027.0 in /  34774.2 hPa ENE 3.2 mph /  5.1 km/h 3.2 mph /  5.1 km/h 82 % 0.0 in /  0 mm
00:47 6.6 °F /  -14.1 °C 3.9 °F /  -15.6 °C 1027.0 in /  34774.2 hPa ENE 3.7 mph /  6 km/h 3.7 mph /  6 km/h 83 % 0.0 in /  0 mm
00:52 6.6 °F /  -14.1 °C 3.9 °F /  -15.6 °C 1027.0 in /  34774.2 hPa ENE 1.9 mph /  3.1 km/h 2.3 mph /  3.7 km/h 83 % 0.0 in /  0 mm
00:57 6.7 °F /  -14.1 °C 4.0 °F /  -15.6 °C 1027.0 in /  34774.2 hPa ENE 1.9 mph /  3.1 km/h 1.9 mph /  3.1 km/h 83 % 0.0 in /  0 mm
01:02 6.7 °F /  -14.1 °C 4.0 °F /  -15.6 °C 1027.0 in /  34774.2 hPa ENE 2.3 mph /  3.7 km/h 2.3 mph /  3.7 km/h 83 % 0.0 in /  0 mm
01:07 6.8 °F /  -14 °C 4.1 °F /  -15.5 °C 1027.0 in /  34774.2 hPa ENE 2.3 mph /  3.7 km/h 2.3 mph /  3.7 km/h 83 % 0.0 in /  0 mm
01:12 6.8 °F /  -14 °C 4.1 °F /  -15.5 °C 1027.0 in /  34774.2 hPa Calm     83 % 0.0 in /  0 mm
01:17 6.8 °F /  -14 °C 4.3 °F /  -15.4 °C 1027.0 in /  34774.2 hPa ENE 2.3 mph /  3.7 km/h 2.3 mph /  3.7 km/h 84 % 0.0 in /  0 mm
01:22 6.9 °F /  -13.9 °C 4.4 °F /  -15.3 °C 1027.0 in /  34774.2 hPa ENE 1.9 mph /  3.1 km/h   84 % 0.0 in /  0 mm
01:27 6.9 °F /  -13.9 °C 4.4 °F /  -15.3 °C 1027.0 in /  34774.2 hPa Calm     84 % 0.0 in /  0 mm
01:32 7.0 °F /  -13.9 °C 4.5 °F /  -15.3 °C 1026.0 in /  34740.4 hPa ENE 3.7 mph /  6 km/h 3.7 mph /  6 km/h 84 % 0.0 in /  0 mm
01:37 7.0 °F /  -13.9 °C 4.5 °F /  -15.3 °C 1026.0 in /  34740.4 hPa Calm     84 % 0.0 in /  0 mm
01:42 7.0 °F /  -13.9 °C 4.5 °F /  -15.3 °C 1026.0 in /  34740.4 hPa ENE 2.3 mph /  3.7 km/h 2.3 mph /  3.7 km/h 84 % 0.0 in /  0 mm
01:47 6.9 °F /  -13.9 °C 4.4 °F /  -15.3 °C 1026.0 in /  34740.4 hPa Calm     84 % 0.0 in /  0 mm
01:52 6.9 °F /  -13.9 °C 4.4 °F /  -15.3 °C 1026.0 in /  34740.4 hPa Calm     84 % 0.0 in /  0 mm
01:57 7.0 °F /  -13.9 °C 4.5 °F /  -15.3 °C 1026.0 in /  34740.4 hPa ENE 1.9 mph /  3.1 km/h 1.9 mph /  3.1 km/h 84 % 0.0 in /  0 mm
02:02 6.9 °F /  -13.9 °C 4.4 °F /  -15.3 °C 1026.0 in /  34740.4 hPa West 1.9 mph /  3.1 km/h   84 % 0.0 in /  0 mm
02:07 6.9 °F /  -13.9 °C 4.4 °F /  -15.3 °C 1026.0 in /  34740.4 hPa West 3.2 mph /  5.1 km/h 3.2 mph /  5.1 km/h 84 % 0.0 in /  0 mm
02:12 6.9 °F /  -13.9 °C 4.4 °F /  -15.3 °C 1026.0 in /  34740.4 hPa SW 3.7 mph /  6 km/h 3.7 mph /  6 km/h 84 % 0.0 in /  0 mm
02:17 6.9 °F /  -13.9 °C 4.4 °F /  -15.3 °C 1026.0 in /  34740.4 hPa SW 1.9 mph /  3.1 km/h   84 % 0.0 in /  0 mm
02:22 7.0 °F /  -13.9 °C 4.5 °F /  -15.3 °C 1026.0 in /  34740.4 hPa SW 1.4 mph /  2.3 km/h   84 % 0.0 in /  0 mm
02:27 7.0 °F /  -13.9 °C 4.5 °F /  -15.3 °C 1026.0 in /  34740.4 hPa SW 3.7 mph /  6 km/h 3.7 mph /  6 km/h 84 % 0.0 in /  0 mm
02:32 7.0 °F /  -13.9 °C 4.5 °F /  -15.3 °C 1026.0 in /  34740.4 hPa SW 3.7 mph /  6 km/h 3.7 mph /  6 km/h 84 % 0.0 in /  0 mm
02:37 7.0 °F /  -13.9 °C 4.5 °F /  -15.3 °C 1026.0 in /  34740.4 hPa Calm     84 % 0.0 in /  0 mm
02:42 7.0 °F /  -13.9 °C 4.5 °F /  -15.3 °C 1026.0 in /  34740.4 hPa SW 1.9 mph /  3.1 km/h 1.9 mph /  3.1 km/h 84 % 0.0 in /  0 mm
02:47 7.1 °F /  -13.8 °C 4.7 °F /  -15.2 °C 1024.9 in /  34703.1 hPa Calm     85 % 0.0 in /  0 mm
02:52 7.1 °F /  -13.8 °C 4.7 °F /  -15.2 °C 1024.9 in /  34703.1 hPa Calm     85 % 0.0 in /  0 mm
02:57 7.2 °F /  -13.8 °C 4.8 °F /  -15.1 °C 1024.9 in /  34703.1 hPa Calm     85 % 0.0 in /  0 mm
03:02 7.3 °F /  -13.7 °C 4.9 °F /  -15.1 °C 1026.0 in /  34740.4 hPa ENE 1.9 mph /  3.1 km/h   85 % 0.0 in /  0 mm
03:07 7.3 °F /  -13.7 °C 4.9 °F /  -15.1 °C 1026.0 in /  34740.4 hPa SW 3.5 mph /  5.6 km/h   85 % 0.0 in /  0 mm
03:12 7.3 °F /  -13.7 °C 4.9 °F /  -15.1 °C 1026.0 in /  34740.4 hPa Calm     85 % 0.0 in /  0 mm
03:17 7.3 °F /  -13.7 °C 4.9 °F /  -15.1 °C 1026.0 in /  34740.4 hPa Calm     85 % 0.0 in /  0 mm
03:22 7.3 °F /  -13.7 °C 4.9 °F /  -15.1 °C 1026.0 in /  34740.4 hPa SW 1.9 mph /  3.1 km/h 1.9 mph /  3.1 km/h 85 % 0.0 in /  0 mm
03:27 7.3 °F /  -13.7 °C 4.9 °F /  -15.1 °C 1026.0 in /  34740.4 hPa SW 1.9 mph /  3.1 km/h   85 % 0.0 in /  0 mm
03:32 7.4 °F /  -13.7 °C 5.1 °F /  -14.9 °C 1026.0 in /  34740.4 hPa SW 1.9 mph /  3.1 km/h   85 % 0.0 in /  0 mm
03:37 7.4 °F /  -13.7 °C 5.1 °F /  -14.9 °C 1026.0 in /  34740.4 hPa SW 1.9 mph /  3.1 km/h   85 % 0.0 in /  0 mm
03:42 7.4 °F /  -13.7 °C 5.1 °F /  -14.9 °C 1026.0 in /  34740.4 hPa WSW 3.7 mph /  6 km/h 3.7 mph /  6 km/h 85 % 0.0 in /  0 mm
03:47 7.4 °F /  -13.7 °C 5.1 °F /  -14.9 °C 1026.0 in /  34740.4 hPa SW 1.9 mph /  3.1 km/h   85 % 0.0 in /  0 mm
03:52 7.4 °F /  -13.7 °C 5.2 °F /  -14.9 °C 1026.0 in /  34740.4 hPa SW 1.9 mph /  3.1 km/h   86 % 0.0 in /  0 mm
03:57 7.4 °F /  -13.7 °C 5.1 °F /  -14.9 °C 1026.0 in /  34740.4 hPa WSW 1.9 mph /  3.1 km/h   85 % 0.0 in /  0 mm
04:02 7.5 °F /  -13.6 °C 5.3 °F /  -14.8 °C 1026.0 in /  34740.4 hPa Calm     86 % 0.0 in /  0 mm
04:07 7.5 °F /  -13.6 °C 5.3 °F /  -14.8 °C 1026.0 in /  34740.4 hPa NNE 3.7 mph /  6 km/h 3.7 mph /  6 km/h 86 % 0.0 in /  0 mm
04:12 7.6 °F /  -13.6 °C 5.4 °F /  -14.8 °C 1026.0 in /  34740.4 hPa NNE 1.9 mph /  3.1 km/h 1.9 mph /  3.1 km/h 86 % 0.0 in /  0 mm
04:17 7.6 °F /  -13.6 °C 5.4 °F /  -14.8 °C 1024.9 in /  34703.1 hPa Calm     86 % 0.0 in /  0 mm
04:22 7.6 °F /  -13.6 °C 5.6 °F /  -14.7 °C 1024.9 in /  34703.1 hPa Calm     87 % 0.0 in /  0 mm
04:27 7.6 °F /  -13.6 °C 5.6 °F /  -14.7 °C 1024.9 in /  34703.1 hPa NNE 1.9 mph /  3.1 km/h 1.9 mph /  3.1 km/h 87 % 0.0 in /  0 mm
04:32 7.7 °F /  -13.5 °C 5.7 °F /  -14.6 °C 1024.9 in /  34703.1 hPa NE 3.7 mph /  6 km/h 3.7 mph /  6 km/h 87 % 0.0 in /  0 mm
04:37 7.6 °F /  -13.6 °C 5.4 °F /  -14.8 °C 1024.9 in /  34703.1 hPa NE 5.6 mph /  9 km/h 5.6 mph /  9 km/h 86 % 0.0 in /  0 mm
04:42 7.6 °F /  -13.6 °C 5.4 °F /  -14.8 °C 1024.9 in /  34703.1 hPa NE 3.7 mph /  6 km/h 3.7 mph /  6 km/h 86 % 0.0 in /  0 mm
04:47 7.5 °F /  -13.6 °C 5.5 °F /  -14.7 °C 1023.9 in /  34669.3 hPa NE 2.6 mph /  4.2 km/h 2.6 mph /  4.2 km/h 87 % 0.0 in /  0 mm
04:52 7.4 °F /  -13.7 °C 5.2 °F /  -14.9 °C 1023.9 in /  34669.3 hPa NNE 5.6 mph /  9 km/h 5.6 mph /  9 km/h 86 % 0.0 in /  0 mm
04:57 7.4 °F /  -13.7 °C 5.2 °F /  -14.9 °C 1023.9 in /  34669.3 hPa NNE 1.9 mph /  3.1 km/h 2.3 mph /  3.7 km/h 86 % 0.0 in /  0 mm
05:02 7.4 °F /  -13.7 °C 5.2 °F /  -14.9 °C 1023.9 in /  34669.3 hPa NNW 5.6 mph /  9 km/h   86 % 0.0 in /  0 mm
05:07 7.4 °F /  -13.7 °C 5.2 °F /  -14.9 °C 1023.9 in /  34669.3 hPa ENE 2.6 mph /  4.2 km/h 2.6 mph /  4.2 km/h 86 % 0.0 in /  0 mm
05:12 7.4 °F /  -13.7 °C 5.4 °F /  -14.8 °C 1023.9 in /  34669.3 hPa Calm     87 % 0.0 in /  0 mm
05:17 7.4 °F /  -13.7 °C 5.4 °F /  -14.8 °C 1023.9 in /  34669.3 hPa NE 3.2 mph /  5.1 km/h 3.2 mph /  5.1 km/h 87 % 0.0 in /  0 mm
05:22 7.4 °F /  -13.7 °C 5.4 °F /  -14.8 °C 1023.9 in /  34669.3 hPa ENE 2.3 mph /  3.7 km/h   87 % 0.0 in /  0 mm
05:27 7.4 °F /  -13.7 °C 5.4 °F /  -14.8 °C 1023.9 in /  34669.3 hPa ENE 1.9 mph /  3.1 km/h   87 % 0.0 in /  0 mm
05:32 7.4 °F /  -13.7 °C 5.4 °F /  -14.8 °C 1023.9 in /  34669.3 hPa Calm     87 % 0.0 in /  0 mm
05:37 7.5 °F /  -13.6 °C 5.5 °F /  -14.7 °C 1023.9 in /  34669.3 hPa SSW 3.7 mph /  6 km/h   87 % 0.0 in /  0 mm
05:42 7.5 °F /  -13.6 °C 5.5 °F /  -14.7 °C 1023.9 in /  34669.3 hPa SSW 1.9 mph /  3.1 km/h 1.9 mph /  3.1 km/h 87 % 0.0 in /  0 mm
05:47 7.5 °F /  -13.6 °C 5.3 °F /  -14.8 °C 1023.9 in /  34669.3 hPa SSW 1.9 mph /  3.1 km/h 1.9 mph /  3.1 km/h 86 % 0.0 in /  0 mm
05:52 7.5 °F /  -13.6 °C 5.5 °F /  -14.7 °C 1023.9 in /  34669.3 hPa Calm     87 % 0.0 in /  0 mm
05:57 7.5 °F /  -13.6 °C 5.5 °F /  -14.7 °C 1023.9 in /  34669.3 hPa SSW 3.7 mph /  6 km/h   87 % 0.0 in /  0 mm
06:02 7.5 °F /  -13.6 °C 5.5 °F /  -14.7 °C 1023.9 in /  34669.3 hPa SSW 1.9 mph /  3.1 km/h   87 % 0.0 in /  0 mm
06:07 7.5 °F /  -13.6 °C 5.5 °F /  -14.7 °C 1023.9 in /  34669.3 hPa SSW 3.2 mph /  5.1 km/h 3.2 mph /  5.1 km/h 87 % 0.0 in /  0 mm
06:12 7.5 °F /  -13.6 °C 5.5 °F /  -14.7 °C 1023.9 in /  34669.3 hPa SSW 1.9 mph /  3.1 km/h   87 % 0.0 in /  0 mm
06:17 7.5 °F /  -13.6 °C 5.5 °F /  -14.7 °C 1023.9 in /  34669.3 hPa SSW 1.9 mph /  3.1 km/h   87 % 0.0 in /  0 mm
06:22 7.5 °F /  -13.6 °C 5.5 °F /  -14.7 °C 1023.9 in /  34669.3 hPa Calm     87 % 0.0 in /  0 mm
06:27 7.5 °F /  -13.6 °C 5.5 °F /  -14.7 °C 1023.9 in /  34669.3 hPa Calm     87 % 0.0 in /  0 mm
06:32 7.5 °F /  -13.6 °C 5.5 °F /  -14.7 °C 1023.9 in /  34669.3 hPa SSW 1.9 mph /  3.1 km/h   87 % 0.0 in /  0 mm
06:37 7.5 °F /  -13.6 °C 5.5 °F /  -14.7 °C 1023.9 in /  34669.3 hPa East 1.9 mph /  3.1 km/h   87 % 0.0 in /  0 mm
06:42 7.5 °F /  -13.6 °C 5.5 °F /  -14.7 °C 1023.9 in /  34669.3 hPa Calm     87 % 0.0 in /  0 mm
06:47 7.5 °F /  -13.6 °C 5.5 °F /  -14.7 °C 1023.9 in /  34669.3 hPa Calm     87 % 0.0 in /  0 mm
06:52 7.6 °F /  -13.6 °C 5.6 °F /  -14.7 °C 1023.9 in /  34669.3 hPa East 3.7 mph /  6 km/h   87 % 0.0 in /  0 mm
06:57 7.6 °F /  -13.6 °C 5.6 °F /  -14.7 °C 1023.9 in /  34669.3 hPa ENE 3.7 mph /  6 km/h 3.7 mph /  6 km/h 87 % 0.0 in /  0 mm
07:02 7.6 °F /  -13.6 °C 5.6 °F /  -14.7 °C 1023.9 in /  34669.3 hPa ENE 3.7 mph /  6 km/h 3.7 mph /  6 km/h 87 % 0.0 in /  0 mm
07:07 7.6 °F /  -13.6 °C 5.6 °F /  -14.7 °C 1023.9 in /  34669.3 hPa NNE 3.7 mph /  6 km/h   87 % 0.0 in /  0 mm
07:12 7.5 °F /  -13.6 °C 5.5 °F /  -14.7 °C 1023.9 in /  34669.3 hPa NE 3.7 mph /  6 km/h 3.7 mph /  6 km/h 87 % 0.0 in /  0 mm
07:17 7.4 °F /  -13.7 °C 5.4 °F /  -14.8 °C 1023.9 in /  34669.3 hPa NNE 3.7 mph /  6 km/h   87 % 0.0 in /  0 mm
07:22 7.4 °F /  -13.7 °C 5.4 °F /  -14.8 °C 1023.9 in /  34669.3 hPa NNE 1.9 mph /  3.1 km/h 1.9 mph /  3.1 km/h 87 % 0.0 in /  0 mm
07:27 7.4 °F /  -13.7 °C 5.4 °F /  -14.8 °C 1023.9 in /  34669.3 hPa NNE 2.6 mph /  4.2 km/h 2.6 mph /  4.2 km/h 87 % 0.0 in /  0 mm
07:32 7.4 °F /  -13.7 °C 5.4 °F /  -14.8 °C 1023.9 in /  34669.3 hPa Calm     87 % 0.0 in /  0 mm
07:38 7.5 °F /  -13.6 °C 5.5 °F /  -14.7 °C 1023.9 in /  34669.3 hPa Calm     87 % 0.0 in /  0 mm
07:43 7.5 °F /  -13.6 °C 5.5 °F /  -14.7 °C 1023.9 in /  34669.3 hPa Calm     87 % 0.0 in /  0 mm
07:48 7.5 °F /  -13.6 °C 5.5 °F /  -14.7 °C 1023.9 in /  34669.3 hPa Calm     87 % 0.0 in /  0 mm
07:53 7.6 °F /  -13.6 °C 5.6 °F /  -14.7 °C 1023.9 in /  34669.3 hPa WNW 1.4 mph /  2.3 km/h   87 % 0.0 in /  0 mm
07:58 7.6 °F /  -13.6 °C 5.6 °F /  -14.7 °C 1023.9 in /  34669.3 hPa WNW 1.9 mph /  3.1 km/h   87 % 0.0 in /  0 mm
08:03 7.5 °F /  -13.6 °C 5.5 °F /  -14.7 °C 1022.9 in /  34635.4 hPa Calm     87 % 0.0 in /  0 mm
08:08 7.6 °F /  -13.6 °C 5.6 °F /  -14.7 °C 1022.9 in /  34635.4 hPa WNW 1.4 mph /  2.3 km/h 1.4 mph /  2.3 km/h 87 % 0.0 in /  0 mm
08:13 7.6 °F /  -13.6 °C 5.6 °F /  -14.7 °C 1022.9 in /  34635.4 hPa Calm     87 % 0.0 in /  0 mm
08:18 7.6 °F /  -13.6 °C 5.6 °F /  -14.7 °C 1023.9 in /  34669.3 hPa Calm     87 % 0.0 in /  0 mm
08:23 7.6 °F /  -13.6 °C 5.6 °F /  -14.7 °C 1023.9 in /  34669.3 hPa Calm     87 % 0.0 in /  0 mm
08:28 7.6 °F /  -13.6 °C 5.6 °F /  -14.7 °C 1023.9 in /  34669.3 hPa WNW 1.9 mph /  3.1 km/h   87 % 0.0 in /  0 mm
08:33 7.6 °F /  -13.6 °C 5.6 °F /  -14.7 °C 1023.9 in /  34669.3 hPa West 1.9 mph /  3.1 km/h 1.9 mph /  3.1 km/h 87 % 0.0 in /  0 mm
08:38 7.5 °F /  -13.6 °C 5.5 °F /  -14.7 °C 1023.9 in /  34669.3 hPa Calm     87 % 0.0 in /  0 mm
08:43 7.4 °F /  -13.7 °C 5.2 °F /  -14.9 °C 1023.9 in /  34669.3 hPa SW 3.7 mph /  6 km/h 3.7 mph /  6 km/h 86 % 0.0 in /  0 mm
08:48 7.4 °F /  -13.7 °C 5.2 °F /  -14.9 °C 1023.9 in /  34669.3 hPa SW 3.7 mph /  6 km/h 3.7 mph /  6 km/h 86 % 0.0 in /  0 mm
08:53 7.4 °F /  -13.7 °C 5.2 °F /  -14.9 °C 1023.9 in /  34669.3 hPa SW 3.7 mph /  6 km/h   86 % 0.0 in /  0 mm
08:58 7.5 °F /  -13.6 °C 5.3 °F /  -14.8 °C 1023.9 in /  34669.3 hPa SW 2.3 mph /  3.7 km/h 2.3 mph /  3.7 km/h 86 % 0.0 in /  0 mm
09:03 7.4 °F /  -13.7 °C 5.2 °F /  -14.9 °C 1023.9 in /  34669.3 hPa SW 2.3 mph /  3.7 km/h 2.6 mph /  4.2 km/h 86 % 0.0 in /  0 mm
09:08 7.4 °F /  -13.7 °C 5.2 °F /  -14.9 °C 1023.9 in /  34669.3 hPa Calm     86 % 0.0 in /  0 mm
09:13 7.4 °F /  -13.7 °C 5.2 °F /  -14.9 °C 1023.9 in /  34669.3 hPa SW 3.7 mph /  6 km/h 3.7 mph /  6 km/h 86 % 0.0 in /  0 mm
09:18 7.5 °F /  -13.6 °C 5.3 °F /  -14.8 °C 1023.9 in /  34669.3 hPa SW 1.9 mph /  3.1 km/h   86 % 0.0 in /  0 mm
09:23 7.5 °F /  -13.6 °C 5.3 °F /  -14.8 °C 1023.9 in /  34669.3 hPa SW 1.9 mph /  3.1 km/h   86 % 0.0 in /  0 mm
09:28 7.5 °F /  -13.6 °C 5.2 °F /  -14.9 °C 1023.9 in /  34669.3 hPa SW 1.9 mph /  3.1 km/h   85 % 0.0 in /  0 mm
09:33 7.6 °F /  -13.6 °C 5.4 °F /  -14.8 °C 1023.9 in /  34669.3 hPa Calm     86 % 0.0 in /  0 mm
09:38 7.7 °F /  -13.5 °C 5.5 °F /  -14.7 °C 1023.9 in /  34669.3 hPa Calm     86 % 0.0 in /  0 mm
09:43 7.8 °F /  -13.4 °C 5.6 °F /  -14.7 °C 1023.9 in /  34669.3 hPa SW 1.9 mph /  3.1 km/h   86 % 0.0 in /  0 mm
09:48 7.9 °F /  -13.4 °C 5.7 °F /  -14.6 °C 1023.9 in /  34669.3 hPa Calm     86 % 0.0 in /  0 mm
09:53 8.0 °F /  -13.3 °C 5.8 °F /  -14.6 °C 1023.9 in /  34669.3 hPa Calm     86 % 0.0 in /  0 mm
09:58 8.0 °F /  -13.3 °C 5.8 °F /  -14.6 °C 1023.9 in /  34669.3 hPa NNE 3.2 mph /  5.1 km/h 3.2 mph /  5.1 km/h 86 % 0.0 in /  0 mm
10:03 8.1 °F /  -13.3 °C 5.9 °F /  -14.5 °C 1023.9 in /  34669.3 hPa NNE 1.9 mph /  3.1 km/h   86 % 0.0 in /  0 mm
10:08 8.2 °F /  -13.2 °C 6.0 °F /  -14.4 °C 1023.9 in /  34669.3 hPa NE 5.6 mph /  9 km/h 5.6 mph /  9 km/h 86 % 0.0 in /  0 mm
10:13 8.2 °F /  -13.2 °C 6.0 °F /  -14.4 °C 1023.9 in /  34669.3 hPa NNE 3.9 mph /  6.3 km/h 3.9 mph /  6.3 km/h 86 % 0.0 in /  0 mm
10:18 8.3 °F /  -13.2 °C 5.9 °F /  -14.5 °C 1023.9 in /  34669.3 hPa NE 3.2 mph /  5.1 km/h   85 % 0.0 in /  0 mm
10:23 8.4 °F /  -13.1 °C 6.0 °F /  -14.4 °C 1023.9 in /  34669.3 hPa ENE 3.7 mph /  6 km/h 3.7 mph /  6 km/h 85 % 0.0 in /  0 mm
10:28 8.5 °F /  -13.1 °C 6.1 °F /  -14.4 °C 1023.9 in /  34669.3 hPa NE 2.6 mph /  4.2 km/h 2.6 mph /  4.2 km/h 85 % 0.0 in /  0 mm
10:33 8.5 °F /  -13.1 °C 6.1 °F /  -14.4 °C 1023.9 in /  34669.3 hPa ENE 3.7 mph /  6 km/h 3.7 mph /  6 km/h 85 % 0.0 in /  0 mm
10:38 8.7 °F /  -12.9 °C 6.3 °F /  -14.3 °C 1023.9 in /  34669.3 hPa NE 3.7 mph /  6 km/h 3.7 mph /  6 km/h 85 % 0.0 in /  0 mm
10:43 8.7 °F /  -12.9 °C 6.2 °F /  -14.3 °C 1023.9 in /  34669.3 hPa NE 1.9 mph /  3.1 km/h 1.9 mph /  3.1 km/h 84 % 0.0 in /  0 mm
10:48 8.7 °F /  -12.9 °C 6.2 °F /  -14.3 °C 1023.9 in /  34669.3 hPa NE 3.7 mph /  6 km/h 3.7 mph /  6 km/h 84 % 0.0 in /  0 mm
10:53 9.0 °F /  -12.8 °C 6.4 °F /  -14.2 °C 1023.9 in /  34669.3 hPa ENE 2.6 mph /  4.2 km/h 2.6 mph /  4.2 km/h 84 % 0.0 in /  0 mm
10:58 9.0 °F /  -12.8 °C 6.3 °F /  -14.3 °C 1023.9 in /  34669.3 hPa Calm     83 % 0.0 in /  0 mm
11:03 9.0 °F /  -12.8 °C 6.3 °F /  -14.3 °C 1023.9 in /  34669.3 hPa ENE 2.3 mph /  3.7 km/h 2.3 mph /  3.7 km/h 83 % 0.0 in /  0 mm
11:08 9.1 °F /  -12.7 °C 6.2 °F /  -14.3 °C 1023.9 in /  34669.3 hPa East 3.7 mph /  6 km/h   82 % 0.0 in /  0 mm
11:13 9.2 °F /  -12.7 °C 6.3 °F /  -14.3 °C 1023.9 in /  34669.3 hPa Calm     82 % 0.0 in /  0 mm
11:18 9.3 °F /  -12.6 °C 6.4 °F /  -14.2 °C 1023.9 in /  34669.3 hPa ENE 3.7 mph /  6 km/h 3.7 mph /  6 km/h 82 % 0.0 in /  0 mm
11:23 9.3 °F /  -12.6 °C 6.2 °F /  -14.3 °C 1023.9 in /  34669.3 hPa ENE 3.7 mph /  6 km/h 3.7 mph /  6 km/h 81 % 0.0 in /  0 mm
11:28 9.4 °F /  -12.6 °C 6.3 °F /  -14.3 °C 1023.9 in /  34669.3 hPa East 2.3 mph /  3.7 km/h   81 % 0.0 in /  0 mm
11:33 9.4 °F /  -12.6 °C 6.3 °F /  -14.3 °C 1023.9 in /  34669.3 hPa ENE 2.3 mph /  3.7 km/h 2.3 mph /  3.7 km/h 81 % 0.0 in /  0 mm
11:38 9.5 °F /  -12.5 °C 6.2 °F /  -14.3 °C 1023.9 in /  34669.3 hPa ENE 1.9 mph /  3.1 km/h 1.9 mph /  3.1 km/h 80 % 0.0 in /  0 mm
11:43 9.6 °F /  -12.4 °C 6.3 °F /  -14.3 °C 1023.9 in /  34669.3 hPa Calm     80 % 0.0 in /  0 mm
11:48 9.6 °F /  -12.4 °C 6.3 °F /  -14.3 °C 1023.9 in /  34669.3 hPa Calm     80 % 0.0 in /  0 mm
11:53 9.6 °F /  -12.4 °C 6.3 °F /  -14.3 °C 1023.9 in /  34669.3 hPa ENE 2.3 mph /  3.7 km/h 2.3 mph /  3.7 km/h 80 % 0.0 in /  0 mm
11:58 9.7 °F /  -12.4 °C 6.4 °F /  -14.2 °C 1023.9 in /  34669.3 hPa Calm     80 % 0.0 in /  0 mm
12:03 9.8 °F /  -12.3 °C 6.5 °F /  -14.2 °C 1022.9 in /  34635.4 hPa NE 1.9 mph /  3.1 km/h   80 % 0.0 in /  0 mm
12:08 9.8 °F /  -12.3 °C 6.3 °F /  -14.3 °C 1022.9 in /  34635.4 hPa NNE 3.7 mph /  6 km/h 3.7 mph /  6 km/h 79 % 0.0 in /  0 mm
12:13 9.9 °F /  -12.3 °C 6.4 °F /  -14.2 °C 1022.9 in /  34635.4 hPa North 2.3 mph /  3.7 km/h   79 % 0.0 in /  0 mm
12:18 9.9 °F /  -12.3 °C 6.4 °F /  -14.2 °C 1022.9 in /  34635.4 hPa Calm     79 % 0.0 in /  0 mm
12:23 10.0 °F /  -12.2 °C 6.5 °F /  -14.2 °C 1022.9 in /  34635.4 hPa Calm     79 % 0.0 in /  0 mm
12:28 10.0 °F /  -12.2 °C 6.5 °F /  -14.2 °C 1022.9 in /  34635.4 hPa NE 1.9 mph /  3.1 km/h   79 % 0.0 in /  0 mm
12:33 10.0 °F /  -12.2 °C 6.5 °F /  -14.2 °C 1021.9 in /  34601.5 hPa NNE 3.7 mph /  6 km/h 3.7 mph /  6 km/h 79 % 0.0 in /  0 mm
12:38 10.1 °F /  -12.2 °C 6.6 °F /  -14.1 °C 1021.9 in /  34601.5 hPa NNW 2.3 mph /  3.7 km/h   79 % 0.0 in /  0 mm
12:43 10.2 °F /  -12.1 °C 6.7 °F /  -14.1 °C 1021.9 in /  34601.5 hPa Calm     79 % 0.0 in /  0 mm
12:48 10.2 °F /  -12.1 °C 6.6 °F /  -14.1 °C 1021.9 in /  34601.5 hPa NNW 1.9 mph /  3.1 km/h   78 % 0.0 in /  0 mm
12:53 10.3 °F /  -12.1 °C 6.6 °F /  -14.1 °C 1021.9 in /  34601.5 hPa NE 3.7 mph /  6 km/h 3.7 mph /  6 km/h 78 % 0.0 in /  0 mm
12:58 10.3 °F /  -12.1 °C 6.6 °F /  -14.1 °C 1021.9 in /  34601.5 hPa NE 1.9 mph /  3.1 km/h   78 % 0.0 in /  0 mm
13:03 10.4 °F /  -12 °C 6.7 °F /  -14.1 °C 1020.9 in /  34567.7 hPa Calm     78 % 0.0 in /  0 mm
13:08 10.5 °F /  -11.9 °C 6.8 °F /  -14 °C 1020.9 in /  34567.7 hPa ENE 1.9 mph /  3.1 km/h 1.9 mph /  3.1 km/h 78 % 0.0 in /  0 mm
13:13 10.6 °F /  -11.9 °C 6.9 °F /  -13.9 °C 1020.9 in /  34567.7 hPa NE 3.7 mph /  6 km/h 3.7 mph /  6 km/h 78 % 0.0 in /  0 mm
13:18 10.7 °F /  -11.8 °C 7.0 °F /  -13.9 °C 1021.9 in /  34601.5 hPa Calm     78 % 0.0 in /  0 mm
13:23 10.8 °F /  -11.8 °C 7.1 °F /  -13.8 °C 1021.9 in /  34601.5 hPa ENE 1.9 mph /  3.1 km/h 1.9 mph /  3.1 km/h 78 % 0.0 in /  0 mm
13:28 10.8 °F /  -11.8 °C 7.1 °F /  -13.8 °C 1021.9 in /  34601.5 hPa Calm     78 % 0.0 in /  0 mm
13:33 10.8 °F /  -11.8 °C 7.1 °F /  -13.8 °C 1021.9 in /  34601.5 hPa ENE 2.3 mph /  3.7 km/h 2.3 mph /  3.7 km/h 78 % 0.0 in /  0 mm
13:38 10.8 °F /  -11.8 °C 7.1 °F /  -13.8 °C 1021.9 in /  34601.5 hPa East 1.9 mph /  3.1 km/h   78 % 0.0 in /  0 mm
13:43 10.9 °F /  -11.7 °C 7.2 °F /  -13.8 °C 1021.9 in /  34601.5 hPa ESE 1.9 mph /  3.1 km/h   78 % 0.0 in /  0 mm
13:48 11.0 °F /  -11.7 °C 7.1 °F /  -13.8 °C 1020.9 in /  34567.7 hPa SE 3.7 mph /  6 km/h 3.7 mph /  6 km/h 77 % 0.0 in /  0 mm
13:53 11.1 °F /  -11.6 °C 7.4 °F /  -13.7 °C 1020.9 in /  34567.7 hPa Calm     78 % 0.0 in /  0 mm
13:58 11.0 °F /  -11.7 °C 7.1 °F /  -13.8 °C 1020.9 in /  34567.7 hPa ESE 2.6 mph /  4.2 km/h 2.6 mph /  4.2 km/h 77 % 0.0 in /  0 mm
14:03 11.1 °F /  -11.6 °C 7.2 °F /  -13.8 °C 1019.9 in /  34533.8 hPa East 3.7 mph /  6 km/h 3.7 mph /  6 km/h 77 % 0.0 in /  0 mm
14:08 11.2 °F /  -11.6 °C 7.3 °F /  -13.7 °C 1019.9 in /  34533.8 hPa ESE 3.9 mph /  6.3 km/h 3.9 mph /  6.3 km/h 77 % 0.0 in /  0 mm
14:13 11.3 °F /  -11.5 °C 7.4 °F /  -13.7 °C 1019.9 in /  34533.8 hPa ESE 3.7 mph /  6 km/h 3.7 mph /  6 km/h 77 % 0.0 in /  0 mm
14:18 11.3 °F /  -11.5 °C 7.4 °F /  -13.7 °C 1019.9 in /  34533.8 hPa Calm     77 % 0.0 in /  0 mm
14:23 11.5 °F /  -11.4 °C 7.6 °F /  -13.6 °C 1019.9 in /  34533.8 hPa Calm     77 % 0.0 in /  0 mm
14:28 11.6 °F /  -11.3 °C 7.9 °F /  -13.4 °C 1019.9 in /  34533.8 hPa South 1.9 mph /  3.1 km/h   78 % 0.0 in /  0 mm
14:33 11.8 °F /  -11.2 °C 8.1 °F /  -13.3 °C 1019.9 in /  34533.8 hPa South 2.6 mph /  4.2 km/h 2.6 mph /  4.2 km/h 78 % 0.0 in /  0 mm
14:38 11.8 °F /  -11.2 °C 7.9 °F /  -13.4 °C 1019.9 in /  34533.8 hPa South 1.9 mph /  3.1 km/h 1.9 mph /  3.1 km/h 77 % 0.0 in /  0 mm
14:43 11.8 °F /  -11.2 °C 7.9 °F /  -13.4 °C 1019.9 in /  34533.8 hPa ESE 2.6 mph /  4.2 km/h 2.6 mph /  4.2 km/h 77 % 0.0 in /  0 mm
14:48 11.8 °F /  -11.2 °C 7.9 °F /  -13.4 °C 1019.9 in /  34533.8 hPa South 3.9 mph /  6.3 km/h   77 % 0.0 in /  0 mm
14:53 11.8 °F /  -11.2 °C 7.9 °F /  -13.4 °C 1019.9 in /  34533.8 hPa SSW 2.6 mph /  4.2 km/h 2.6 mph /  4.2 km/h 77 % 0.0 in /  0 mm
14:58 12.0 °F /  -11.1 °C 8.3 °F /  -13.2 °C 1019.9 in /  34533.8 hPa SW 2.6 mph /  4.2 km/h   78 % 0.0 in /  0 mm
15:03 12.1 °F /  -11.1 °C 8.4 °F /  -13.1 °C 1019.9 in /  34533.8 hPa Calm     78 % 0.0 in /  0 mm
15:08 12.1 °F /  -11.1 °C 8.2 °F /  -13.2 °C 1019.9 in /  34533.8 hPa SW 1.9 mph /  3.1 km/h   77 % 0.0 in /  0 mm
15:13 12.1 °F /  -11.1 °C 8.2 °F /  -13.2 °C 1019.9 in /  34533.8 hPa SW 1.9 mph /  3.1 km/h   77 % 0.0 in /  0 mm
15:18 12.1 °F /  -11.1 °C 8.2 °F /  -13.2 °C 1019.9 in /  34533.8 hPa Calm     77 % 0.0 in /  0 mm
15:23 12.1 °F /  -11.1 °C 8.2 °F /  -13.2 °C 1019.9 in /  34533.8 hPa SW 2.3 mph /  3.7 km/h 2.3 mph /  3.7 km/h 77 % 0.0 in /  0 mm
15:28 12.2 °F /  -11 °C 8.3 °F /  -13.2 °C 1019.9 in /  34533.8 hPa Calm     77 % 0.0 in /  0 mm
15:33 12.2 °F /  -11 °C 8.3 °F /  -13.2 °C 1018.8 in /  34496.6 hPa SW 3.7 mph /  6 km/h 3.7 mph /  6 km/h 77 % 0.0 in /  0 mm
15:38 12.3 °F /  -10.9 °C 8.4 °F /  -13.1 °C 1018.8 in /  34496.6 hPa SW 2.3 mph /  3.7 km/h   77 % 0.0 in /  0 mm
15:43 12.3 °F /  -10.9 °C 8.4 °F /  -13.1 °C 1018.8 in /  34496.6 hPa WSW 3.7 mph /  6 km/h 3.7 mph /  6 km/h 77 % 0.0 in /  0 mm
15:48 12.3 °F /  -10.9 °C 8.4 °F /  -13.1 °C 1018.8 in /  34496.6 hPa WSW 3.7 mph /  6 km/h 3.7 mph /  6 km/h 77 % 0.0 in /  0 mm
15:53 12.3 °F /  -10.9 °C 8.4 °F /  -13.1 °C 1018.8 in /  34496.6 hPa Calm     77 % 0.0 in /  0 mm
15:58 12.4 °F /  -10.9 °C 8.5 °F /  -13.1 °C 1018.8 in /  34496.6 hPa Calm     77 % 0.0 in /  0 mm
16:03 12.4 °F /  -10.9 °C 8.3 °F /  -13.2 °C 1018.8 in /  34496.6 hPa Calm     76 % 0.0 in /  0 mm
16:08 12.5 °F /  -10.8 °C 8.4 °F /  -13.1 °C 1018.8 in /  34496.6 hPa Calm     76 % 0.0 in /  0 mm
16:13 12.4 °F /  -10.9 °C 8.3 °F /  -13.2 °C 1018.8 in /  34496.6 hPa Calm     76 % 0.0 in /  0 mm
16:18 12.5 °F /  -10.8 °C 8.4 °F /  -13.1 °C 1018.8 in /  34496.6 hPa SW 3.7 mph /  6 km/h 3.7 mph /  6 km/h 76 % 0.0 in /  0 mm
16:23 12.4 °F /  -10.9 °C 8.3 °F /  -13.2 °C 1018.8 in /  34496.6 hPa WSW 1.9 mph /  3.1 km/h 1.9 mph /  3.1 km/h 76 % 0.0 in /  0 mm
16:28 12.4 °F /  -10.9 °C 8.3 °F /  -13.2 °C 1018.8 in /  34496.6 hPa Calm     76 % 0.0 in /  0 mm
16:33 12.4 °F /  -10.9 °C 8.3 °F /  -13.2 °C 1018.8 in /  34496.6 hPa SW 2.6 mph /  4.2 km/h   76 % 0.0 in /  0 mm
16:38 12.4 °F /  -10.9 °C 8.3 °F /  -13.2 °C 1018.8 in /  34496.6 hPa SSW 1.9 mph /  3.1 km/h   76 % 0.0 in /  0 mm
16:43 12.4 °F /  -10.9 °C 8.5 °F /  -13.1 °C 1018.8 in /  34496.6 hPa SW 2.6 mph /  4.2 km/h   77 % 0.0 in /  0 mm
16:48 12.4 °F /  -10.9 °C 8.5 °F /  -13.1 °C 1018.8 in /  34496.6 hPa Calm     77 % 0.0 in /  0 mm
16:53 12.4 °F /  -10.9 °C 8.5 °F /  -13.1 °C 1018.8 in /  34496.6 hPa Calm     77 % 0.0 in /  0 mm
16:58 12.3 °F /  -10.9 °C 8.4 °F /  -13.1 °C 1018.8 in /  34496.6 hPa SW 1.9 mph /  3.1 km/h   77 % 0.0 in /  0 mm
17:03 12.3 °F /  -10.9 °C 8.4 °F /  -13.1 °C 1017.8 in /  34462.7 hPa SW 5.6 mph /  9 km/h 5.6 mph /  9 km/h 77 % 0.0 in /  0 mm
17:08 12.3 °F /  -10.9 °C 8.4 °F /  -13.1 °C 1017.8 in /  34462.7 hPa SSW 3.7 mph /  6 km/h   77 % 0.0 in /  0 mm
17:13 12.3 °F /  -10.9 °C 8.4 °F /  -13.1 °C 1017.8 in /  34462.7 hPa WSW 1.9 mph /  3.1 km/h 1.9 mph /  3.1 km/h 77 % 0.0 in /  0 mm
17:18 12.2 °F /  -11 °C 8.3 °F /  -13.2 °C 1017.8 in /  34462.7 hPa South 3.7 mph /  6 km/h 3.7 mph /  6 km/h 77 % 0.0 in /  0 mm
17:23 12.2 °F /  -11 °C 8.3 °F /  -13.2 °C 1017.8 in /  34462.7 hPa WSW 4.2 mph /  6.8 km/h 4.2 mph /  6.8 km/h 77 % 0.0 in /  0 mm
17:28 12.2 °F /  -11 °C 8.3 °F /  -13.2 °C 1017.8 in /  34462.7 hPa SW 3.7 mph /  6 km/h 3.7 mph /  6 km/h 77 % 0.0 in /  0 mm
17:33 12.2 °F /  -11 °C 8.3 °F /  -13.2 °C 1017.8 in /  34462.7 hPa SW 3.9 mph /  6.3 km/h 3.9 mph /  6.3 km/h 77 % 0.0 in /  0 mm
17:38 12.1 °F /  -11.1 °C 8.4 °F /  -13.1 °C 1017.8 in /  34462.7 hPa WSW 7.4 mph /  11.9 km/h 7.4 mph /  11.9 km/h 78 % 0.0 in /  0 mm
17:43 12.1 °F /  -11.1 °C 8.4 °F /  -13.1 °C 1017.8 in /  34462.7 hPa SW 3.7 mph /  6 km/h 3.7 mph /  6 km/h 78 % 0.0 in /  0 mm
17:48 12.1 °F /  -11.1 °C 8.4 °F /  -13.1 °C 1017.8 in /  34462.7 hPa SSW 3.9 mph /  6.3 km/h 3.9 mph /  6.3 km/h 78 % 0.0 in /  0 mm
17:53 12.0 °F /  -11.1 °C 8.3 °F /  -13.2 °C 1017.8 in /  34462.7 hPa SW 1.9 mph /  3.1 km/h   78 % 0.0 in /  0 mm
17:58 12.0 °F /  -11.1 °C 8.3 °F /  -13.2 °C 1017.8 in /  34462.7 hPa SW 7.4 mph /  11.9 km/h 7.4 mph /  11.9 km/h 78 % 0.0 in /  0 mm
18:03 12.0 °F /  -11.1 °C 8.3 °F /  -13.2 °C 1017.8 in /  34462.7 hPa SW 3.9 mph /  6.3 km/h 3.9 mph /  6.3 km/h 78 % 0.0 in /  0 mm
18:08 12.0 °F /  -11.1 °C 8.3 °F /  -13.2 °C 1017.8 in /  34462.7 hPa SW 4.2 mph /  6.8 km/h 4.2 mph /  6.8 km/h 78 % 0.0 in /  0 mm
18:13 11.9 °F /  -11.2 °C 8.4 °F /  -13.1 °C 1017.8 in /  34462.7 hPa WSW 1.9 mph /  3.1 km/h 1.9 mph /  3.1 km/h 79 % 0.0 in /  0 mm
18:18 11.9 °F /  -11.2 °C 8.4 °F /  -13.1 °C 1017.8 in /  34462.7 hPa SW 1.9 mph /  3.1 km/h 1.9 mph /  3.1 km/h 79 % 0.0 in /  0 mm
18:23 11.8 °F /  -11.2 °C 8.3 °F /  -13.2 °C 1017.8 in /  34462.7 hPa SW 3.7 mph /  6 km/h 3.7 mph /  6 km/h 79 % 0.0 in /  0 mm
18:28 11.7 °F /  -11.3 °C 8.2 °F /  -13.2 °C 1017.8 in /  34462.7 hPa WSW 3.7 mph /  6 km/h 3.7 mph /  6 km/h 79 % 0.0 in /  0 mm
18:33 11.7 °F /  -11.3 °C 8.2 °F /  -13.2 °C 1017.8 in /  34462.7 hPa SW 4.2 mph /  6.8 km/h 4.2 mph /  6.8 km/h 79 % 0.0 in /  0 mm
18:38 11.7 °F /  -11.3 °C 8.2 °F /  -13.2 °C 1017.8 in /  34462.7 hPa SW 3.7 mph /  6 km/h 3.7 mph /  6 km/h 79 % 0.0 in /  0 mm
18:43 11.6 °F /  -11.3 °C 8.1 °F /  -13.3 °C 1017.8 in /  34462.7 hPa SW 2.3 mph /  3.7 km/h 2.3 mph /  3.7 km/h 79 % 0.0 in /  0 mm
18:48 11.6 °F /  -11.3 °C 8.1 °F /  -13.3 °C 1016.8 in /  34428.8 hPa WSW 3.7 mph /  6 km/h 3.7 mph /  6 km/h 79 % 0.0 in /  0 mm
18:53 11.6 °F /  -11.3 °C 8.1 °F /  -13.3 °C 1016.8 in /  34428.8 hPa SW 4.2 mph /  6.8 km/h 4.2 mph /  6.8 km/h 79 % 0.0 in /  0 mm
18:58 11.6 °F /  -11.3 °C 8.1 °F /  -13.3 °C 1016.8 in /  34428.8 hPa SW 3.7 mph /  6 km/h 3.7 mph /  6 km/h 79 % 0.0 in /  0 mm
19:03 11.5 °F /  -11.4 °C 8.0 °F /  -13.3 °C 1016.8 in /  34428.8 hPa SW 3.7 mph /  6 km/h 3.7 mph /  6 km/h 79 % 0.0 in /  0 mm
19:08 11.5 °F /  -11.4 °C 8.0 °F /  -13.3 °C 1016.8 in /  34428.8 hPa SW 5.6 mph /  9 km/h 5.6 mph /  9 km/h 79 % 0.0 in /  0 mm
19:13 11.5 °F /  -11.4 °C 8.0 °F /  -13.3 °C 1016.8 in /  34428.8 hPa SW 3.9 mph /  6.3 km/h 3.9 mph /  6.3 km/h 79 % 0.0 in /  0 mm
19:18 11.5 °F /  -11.4 °C 8.0 °F /  -13.3 °C 1017.8 in /  34462.7 hPa WSW 5.6 mph /  9 km/h 5.6 mph /  9 km/h 79 % 0.0 in /  0 mm
19:23 11.5 °F /  -11.4 °C 8.0 °F /  -13.3 °C 1017.8 in /  34462.7 hPa SW 3.7 mph /  6 km/h 3.7 mph /  6 km/h 79 % 0.0 in /  0 mm
19:28 11.5 °F /  -11.4 °C 8.0 °F /  -13.3 °C 1017.8 in /  34462.7 hPa WSW 3.7 mph /  6 km/h 3.7 mph /  6 km/h 79 % 0.0 in /  0 mm
19:33 11.5 °F /  -11.4 °C 8.0 °F /  -13.3 °C 1017.8 in /  34462.7 hPa SW 1.9 mph /  3.1 km/h 1.9 mph /  3.1 km/h 79 % 0.0 in /  0 mm
19:38 11.4 °F /  -11.4 °C 7.9 °F /  -13.4 °C 1017.8 in /  34462.7 hPa WSW 3.7 mph /  6 km/h 3.7 mph /  6 km/h 79 % 0.0 in /  0 mm
19:43 11.4 °F /  -11.4 °C 7.9 °F /  -13.4 °C 1017.8 in /  34462.7 hPa SW 1.9 mph /  3.1 km/h 1.9 mph /  3.1 km/h 79 % 0.0 in /  0 mm
19:48 11.4 °F /  -11.4 °C 7.9 °F /  -13.4 °C 1017.8 in /  34462.7 hPa Calm     79 % 0.0 in /  0 mm
19:53 11.4 °F /  -11.4 °C 7.9 °F /  -13.4 °C 1017.8 in /  34462.7 hPa SW 2.6 mph /  4.2 km/h 2.6 mph /  4.2 km/h 79 % 0.0 in /  0 mm
19:58 11.4 °F /  -11.4 °C 7.9 °F /  -13.4 °C 1017.8 in /  34462.7 hPa Calm     79 % 0.0 in /  0 mm
20:03 11.4 °F /  -11.4 °C 7.9 °F /  -13.4 °C 1017.8 in /  34462.7 hPa SW 1.9 mph /  3.1 km/h   79 % 0.0 in /  0 mm
20:08 11.3 °F /  -11.5 °C 7.8 °F /  -13.4 °C 1017.8 in /  34462.7 hPa SW 2.6 mph /  4.2 km/h 2.6 mph /  4.2 km/h 79 % 0.0 in /  0 mm
20:13 11.3 °F /  -11.5 °C 7.8 °F /  -13.4 °C 1017.8 in /  34462.7 hPa Calm     79 % 0.0 in /  0 mm
20:18 11.3 °F /  -11.5 °C 7.8 °F /  -13.4 °C 1016.8 in /  34428.8 hPa SSW 4.2 mph /  6.8 km/h 4.2 mph /  6.8 km/h 79 % 0.0 in /  0 mm
20:23 11.3 °F /  -11.5 °C 7.8 °F /  -13.4 °C 1016.8 in /  34428.8 hPa SW 2.3 mph /  3.7 km/h 2.3 mph /  3.7 km/h 79 % 0.0 in /  0 mm
20:28 11.3 °F /  -11.5 °C 7.8 °F /  -13.4 °C 1016.8 in /  34428.8 hPa SW 3.7 mph /  6 km/h 3.7 mph /  6 km/h 79 % 0.0 in /  0 mm
20:33 11.4 °F /  -11.4 °C 7.9 °F /  -13.4 °C 1016.8 in /  34428.8 hPa WSW 5.6 mph /  9 km/h 5.6 mph /  9 km/h 79 % 0.0 in /  0 mm
20:38 11.4 °F /  -11.4 °C 7.9 °F /  -13.4 °C 1016.8 in /  34428.8 hPa SSW 3.7 mph /  6 km/h 3.7 mph /  6 km/h 79 % 0.0 in /  0 mm
20:43 11.4 °F /  -11.4 °C 7.9 °F /  -13.4 °C 1016.8 in /  34428.8 hPa SW 2.3 mph /  3.7 km/h 2.3 mph /  3.7 km/h 79 % 0.0 in /  0 mm
20:48 11.4 °F /  -11.4 °C 7.9 °F /  -13.4 °C 1016.8 in /  34428.8 hPa SW 3.7 mph /  6 km/h 3.7 mph /  6 km/h 79 % 0.0 in /  0 mm
20:53 11.4 °F /  -11.4 °C 7.9 °F /  -13.4 °C 1016.8 in /  34428.8 hPa SW 1.9 mph /  3.1 km/h   79 % 0.0 in /  0 mm
20:58 11.4 °F /  -11.4 °C 7.9 °F /  -13.4 °C 1016.8 in /  34428.8 hPa SW 2.3 mph /  3.7 km/h 2.3 mph /  3.7 km/h 79 % 0.0 in /  0 mm
21:03 11.3 °F /  -11.5 °C 7.8 °F /  -13.4 °C 1016.8 in /  34428.8 hPa SW 1.9 mph /  3.1 km/h   79 % 0.0 in /  0 mm
21:08 11.3 °F /  -11.5 °C 7.8 °F /  -13.4 °C 1016.8 in /  34428.8 hPa Calm     79 % 0.0 in /  0 mm
21:10 9.5 °F /  -12.5 °C 7.4 °F /  -13.7 °C 1013.8 in /  34327.3 hPa WSW 1.6 mph /  2.6 km/h 3.2 mph /  5.1 km/h 87 % 0.0 in /  0 mm
21:13 11.3 °F /  -11.5 °C 7.8 °F /  -13.4 °C 1016.8 in /  34428.8 hPa Calm     79 % 0.0 in /  0 mm
21:18 11.3 °F /  -11.5 °C 7.8 °F /  -13.4 °C 1016.8 in /  34428.8 hPa Calm     79 % 0.0 in /  0 mm
21:20 9.3 °F /  -12.6 °C 7.2 °F /  -13.8 °C 1013.8 in /  34327.3 hPa WSW 1.6 mph /  2.6 km/h 4.8 mph /  7.7 km/h 87 % 1.0 in /  25.4 mm
21:23 11.3 °F /  -11.5 °C 7.8 °F /  -13.4 °C 1016.8 in /  34428.8 hPa SW 2.6 mph /  4.2 km/h 2.6 mph /  4.2 km/h 79 % 0.0 in /  0 mm
21:28 11.2 °F /  -11.6 °C 7.7 °F /  -13.5 °C 1016.8 in /  34428.8 hPa SW 1.9 mph /  3.1 km/h   79 % 0.0 in /  0 mm
21:30 9.0 °F /  -12.8 °C 6.8 °F /  -14 °C 1013.8 in /  34327.3 hPa WSW 4.8 mph /  7.7 km/h 9.7 mph /  15.6 km/h 86 % 2.3 in /  58.42 mm
21:33 11.2 °F /  -11.6 °C 7.7 °F /  -13.5 °C 1015.8 in /  34395 hPa Calm     79 % 0.0 in /  0 mm
21:38 11.2 °F /  -11.6 °C 7.7 °F /  -13.5 °C 1015.8 in /  34395 hPa ESE 1.9 mph /  3.1 km/h   79 % 0.0 in /  0 mm
21:40 9.0 °F /  -12.8 °C 6.9 °F /  -13.9 °C 1013.8 in /  34327.3 hPa WSW 3.2 mph /  5.1 km/h 4.8 mph /  7.7 km/h 87 % 1.3 in /  33.02 mm
21:43 11.2 °F /  -11.6 °C 7.7 °F /  -13.5 °C 1015.8 in /  34395 hPa Calm     79 % 0.0 in /  0 mm
21:48 11.2 °F /  -11.6 °C 7.7 °F /  -13.5 °C 1016.8 in /  34428.8 hPa ESE 1.9 mph /  3.1 km/h   79 % 0.0 in /  0 mm
21:50 9.0 °F /  -12.8 °C 6.9 °F /  -13.9 °C 1013.8 in /  34327.3 hPa WSW 1.6 mph /  2.6 km/h 4.8 mph /  7.7 km/h 87 % 0.0 in /  0 mm
21:53 11.1 °F /  -11.6 °C 7.6 °F /  -13.6 °C 1016.8 in /  34428.8 hPa East 1.9 mph /  3.1 km/h   79 % 0.0 in /  0 mm
21:58 11.1 °F /  -11.6 °C 7.6 °F /  -13.6 °C 1016.8 in /  34428.8 hPa Calm     79 % 0.0 in /  0 mm
22:00 9.0 °F /  -12.8 °C 7.1 °F /  -13.8 °C 1013.8 in /  34327.3 hPa WSW 1.6 mph /  2.6 km/h 3.2 mph /  5.1 km/h 88 % 0.0 in /  0 mm
22:03 11.1 °F /  -11.6 °C 7.6 °F /  -13.6 °C 1015.8 in /  34395 hPa Calm     79 % 0.0 in /  0 mm
22:08 11.1 °F /  -11.6 °C 7.6 °F /  -13.6 °C 1015.8 in /  34395 hPa North 1.9 mph /  3.1 km/h   79 % 0.0 in /  0 mm
22:10 8.9 °F /  -12.8 °C 7.0 °F /  -13.9 °C 1013.8 in /  34327.3 hPa Calm   4.8 mph /  7.7 km/h 88 % 0.0 in /  0 mm
22:13 11.1 °F /  -11.6 °C 7.6 °F /  -13.6 °C 1015.8 in /  34395 hPa Calm     79 % 0.0 in /  0 mm
22:18 11.1 °F /  -11.6 °C 7.6 °F /  -13.6 °C 1015.8 in /  34395 hPa Calm     79 % 0.0 in /  0 mm
22:20 8.8 °F /  -12.9 °C 6.9 °F /  -13.9 °C 1012.8 in /  34293.4 hPa Calm   4.8 mph /  7.7 km/h 88 % 1.0 in /  25.4 mm
22:23 11.1 °F /  -11.6 °C 7.6 °F /  -13.6 °C 1015.8 in /  34395 hPa Calm     79 % 0.0 in /  0 mm
22:28 11.0 °F /  -11.7 °C 7.5 °F /  -13.6 °C 1015.8 in /  34395 hPa Calm     79 % 0.0 in /  0 mm
22:30 8.7 °F /  -12.9 °C 6.8 °F /  -14 °C 1012.8 in /  34293.4 hPa WSW 1.6 mph /  2.6 km/h 4.8 mph /  7.7 km/h 88 % 1.0 in /  25.4 mm
22:33 11.0 °F /  -11.7 °C 7.5 °F /  -13.6 °C 1015.8 in /  34395 hPa NNE 3.7 mph /  6 km/h 3.7 mph /  6 km/h 79 % 0.0 in /  0 mm
22:38 11.0 °F /  -11.7 °C 7.5 °F /  -13.6 °C 1015.8 in /  34395 hPa Calm     79 % 0.0 in /  0 mm
22:40 8.7 °F /  -12.9 °C 6.8 °F /  -14 °C 1012.8 in /  34293.4 hPa SW 3.2 mph /  5.1 km/h 6.4 mph /  10.3 km/h 88 % 0.0 in /  0 mm
22:43 11.0 °F /  -11.7 °C 7.7 °F /  -13.5 °C 1015.8 in /  34395 hPa Calm     80 % 0.0 in /  0 mm
22:48 11.0 °F /  -11.7 °C 7.7 °F /  -13.5 °C 1015.8 in /  34395 hPa Calm     80 % 0.0 in /  0 mm
22:53 11.0 °F /  -11.7 °C 7.7 °F /  -13.5 °C 1015.8 in /  34395 hPa NNE 3.7 mph /  6 km/h 3.7 mph /  6 km/h 80 % 0.0 in /  0 mm
22:58 11.0 °F /  -11.7 °C 7.7 °F /  -13.5 °C 1015.8 in /  34395 hPa NNE 3.9 mph /  6.3 km/h 3.9 mph /  6.3 km/h 80 % 0.0 in /  0 mm
23:00 8.5 °F /  -13.1 °C 6.6 °F /  -14.1 °C 1012.8 in /  34293.4 hPa WSW 4.8 mph /  7.7 km/h 6.4 mph /  10.3 km/h 88 % 2.0 in /  50.8 mm
23:03 11.0 °F /  -11.7 °C 7.7 °F /  -13.5 °C 1015.8 in /  34395 hPa NNE 3.9 mph /  6.3 km/h 3.9 mph /  6.3 km/h 80 % 0.0 in /  0 mm
23:08 11.0 °F /  -11.7 °C 7.7 °F /  -13.5 °C 1015.8 in /  34395 hPa NNE 3.7 mph /  6 km/h 3.7 mph /  6 km/h 80 % 0.0 in /  0 mm
23:10 8.3 °F /  -13.2 °C 6.3 °F /  -14.3 °C 1012.8 in /  34293.4 hPa West 4.8 mph /  7.7 km/h 6.4 mph /  10.3 km/h 87 % 2.0 in /  50.8 mm
23:13 11.0 °F /  -11.7 °C 7.7 °F /  -13.5 °C 1015.8 in /  34395 hPa NNE 1.9 mph /  3.1 km/h 1.9 mph /  3.1 km/h 80 % 0.0 in /  0 mm
23:18 10.9 °F /  -11.7 °C 7.6 °F /  -13.6 °C 1015.8 in /  34395 hPa ENE 3.7 mph /  6 km/h 3.7 mph /  6 km/h 80 % 0.0 in /  0 mm
23:20 8.0 °F /  -13.3 °C 5.9 °F /  -14.5 °C 1012.8 in /  34293.4 hPa West 3.2 mph /  5.1 km/h 8.0 mph /  12.9 km/h 87 % 3.3 in /  83.82 mm
23:23 10.9 °F /  -11.7 °C 7.8 °F /  -13.4 °C 1015.8 in /  34395 hPa NNE 3.7 mph /  6 km/h 3.7 mph /  6 km/h 81 % 0.0 in /  0 mm
23:28 10.8 °F /  -11.8 °C 7.7 °F /  -13.5 °C 1015.8 in /  34395 hPa NNE 3.7 mph /  6 km/h 3.7 mph /  6 km/h 81 % 0.0 in /  0 mm
23:30 8.0 °F /  -13.3 °C 6.1 °F /  -14.4 °C 1012.8 in /  34293.4 hPa Calm   4.8 mph /  7.7 km/h 88 % 5.3 in /  134.62 mm
23:33 10.8 °F /  -11.8 °C 7.7 °F /  -13.5 °C 1015.8 in /  34395 hPa NNE 3.7 mph /  6 km/h 3.7 mph /  6 km/h 81 % 0.0 in /  0 mm
23:38 10.7 °F /  -11.8 °C 7.8 °F /  -13.4 °C 1015.8 in /  34395 hPa NNE 3.7 mph /  6 km/h 3.7 mph /  6 km/h 82 % 0.0 in /  0 mm
23:40 7.9 °F /  -13.4 °C 6.1 °F /  -14.4 °C 1013.8 in /  34327.3 hPa West 3.2 mph /  5.1 km/h 4.8 mph /  7.7 km/h 88 % 4.1 in /  104.14 mm
23:43 10.6 °F /  -11.9 °C 7.8 °F /  -13.4 °C 1015.8 in /  34395 hPa NE 3.7 mph /  6 km/h 3.7 mph /  6 km/h 83 % 0.0 in /  0 mm
23:48 10.6 °F /  -11.9 °C 7.8 °F /  -13.4 °C 1015.8 in /  34395 hPa NE 3.7 mph /  6 km/h 3.7 mph /  6 km/h 83 % 0.0 in /  0 mm
23:50 7.9 °F /  -13.4 °C 6.1 °F /  -14.4 °C 1013.8 in /  34327.3 hPa WNW 1.6 mph /  2.6 km/h 3.2 mph /  5.1 km/h 88 % 2.0 in /  50.8 mm
23:53 10.5 °F /  -11.9 °C 7.7 °F /  -13.5 °C 1015.8 in /  34395 hPa NE 3.7 mph /  6 km/h 3.7 mph /  6 km/h 83 % 0.0 in /  0 mm
23:58 10.4 °F /  -12 °C 7.8 °F /  -13.4 °C 1015.8 in /  34395 hPa NE 4.7 mph /  7.6 km/h 4.7 mph /  7.6 km/h 84 % 0.0 in /  0 mm
Meteo Sesrovires
Elogis d' Weather Underground - 4.25 mb

Guio original per  Jim McMurry - jmcmurry@mwt.net Adaptat per a la plantilla per  Wim van der Kuil - Leuven-Template.eu

Trobareu la nostra informacio del temps tambe a:

Weather Underground

AWEKAS